General Aviation Weather

Text Reports

Enter one or more of the following location identifiers separated by a space:

Zip Code, Four-Character ICAO or Three-Character IATA airport codes.

METAR - Aviation Routine Weather Report
PADE - Deering, Alaska
Updated at 2:53 AM GMT on September 04, 2015 (6:53 PM AKDT):
METAR PADE 040253Z AUTO 07010KT 10SM OVC055 15/05 A2976 RMK AO2 SLP077 T01500050 56008 TSNO PNO
TAF - Terminal Area Forecast
PADE - Deering, Alaska
Updated at 2:53 AM GMT on September 04, 2015 (6:53 PM AKDT):
No TAF is currently available for this location.
Decoded:
No decoded TAF is available.
PIREP - Pilot Weather Report
PADE - Deering, Alaska
Updated at 2:53 AM GMT on September 04, 2015 (6:53 PM AKDT):
No PIREP is currently available for this location.
AIRMET - Airmens Meteorological Information
PADE - Deering, Alaska
Updated at 2:53 AM GMT on September 04, 2015 (6:53 PM AKDT):
No AIRMET is currently available for this location.
SIGMET - Significant Meteorological Information
PADE - Deering, Alaska
Updated at 2:53 AM GMT on September 04, 2015 (6:53 PM AKDT):
No SIGMET is currently available for this location.
NOTAM - Notice to Airmen
PADE - Deering, Alaska
Updated at 2:53 AM GMT on September 04, 2015 (6:53 PM AKDT):
No NOTAM is currently available for this location.
Forecast Area
PADE - Deering, Alaska
Updated at 2:53 AM GMT on September 04, 2015 (6:53 PM AKDT):
No NOTAM is currently available for this location.
Aviation Weather Maps